createdAt,value
2022-11-27T00:00:17.687Z,55.46
2022-11-27T00:03:19.953Z,55.52
2022-11-27T00:06:24.406Z,55.47
2022-11-27T00:09:26.529Z,55.48
2022-11-27T00:12:28.610Z,55.48
2022-11-27T00:15:30.723Z,55.48
2022-11-27T00:18:33.394Z,55.49
2022-11-27T00:21:36.636Z,55.46
2022-11-27T00:24:38.876Z,55.48
2022-11-27T00:27:41.136Z,55.50
2022-11-27T00:30:43.496Z,55.51
2022-11-27T00:33:45.986Z,55.53
2022-11-27T00:36:48.509Z,55.52
2022-11-27T00:39:50.579Z,55.57
2022-11-27T00:42:52.606Z,55.60
2022-11-27T00:45:54.683Z,55.56
2022-11-27T00:49:02.193Z,55.56
2022-11-27T00:52:04.523Z,55.61
2022-11-27T00:55:07.343Z,55.62
2022-11-27T00:58:09.455Z,55.60
2022-11-27T01:01:17.869Z,55.65
2022-11-27T01:04:20.010Z,55.63
2022-11-27T01:07:22.133Z,55.66
2022-11-27T01:10:24.350Z,55.65
2022-11-27T01:13:32.706Z,55.68
2022-11-27T01:16:38.557Z,55.65
2022-11-27T01:19:42.883Z,55.61
2022-11-27T01:22:45.261Z,55.64
2022-11-27T01:25:48.166Z,55.68
2022-11-27T01:28:53.213Z,55.68
2022-11-27T01:31:55.251Z,55.71
2022-11-27T01:34:57.283Z,55.72
2022-11-27T01:37:59.352Z,55.68
2022-11-27T01:41:07.715Z,55.70
2022-11-27T01:44:25.134Z,55.71
2022-11-27T01:47:35.753Z,55.74
2022-11-27T01:50:39.342Z,55.78
2022-11-27T01:53:42.110Z,55.78
2022-11-27T01:56:48.595Z,55.74
2022-11-27T01:59:52.251Z,55.76
2022-11-27T02:02:54.500Z,55.74
2022-11-27T02:05:56.556Z,55.83
2022-11-27T02:08:58.664Z,55.81
2022-11-27T02:12:31.346Z,55.81
2022-11-27T02:15:42.185Z,55.78
2022-11-27T02:19:11.396Z,55.80
2022-11-27T02:22:44.576Z,55.79
2022-11-27T02:26:25.473Z,55.81
2022-11-27T02:29:31.782Z,55.84
2022-11-27T02:32:47.688Z,55.79
2022-11-27T02:35:56.499Z,55.83
2022-11-27T02:39:09.020Z,55.81
2022-11-27T02:42:19.439Z,55.80
2022-11-27T02:45:29.745Z,55.81
2022-11-27T02:48:36.042Z,55.84
2022-11-27T02:51:46.179Z,55.82
2022-11-27T02:54:50.093Z,55.81
2022-11-27T02:57:55.644Z,55.81
2022-11-27T03:00:59.134Z,55.84
2022-11-27T03:04:04.206Z,55.80
2022-11-27T03:07:34.350Z,55.74
2022-11-27T03:10:51.981Z,55.81
2022-11-27T03:13:55.608Z,55.83
2022-11-27T03:17:01.508Z,55.82
2022-11-27T03:20:43.530Z,55.83
2022-11-27T03:23:45.610Z,55.87
2022-11-27T03:26:48.272Z,55.84
2022-11-27T03:29:57.461Z,55.87
2022-11-27T03:33:00.717Z,55.90
2022-11-27T03:36:09.480Z,55.89
2022-11-27T03:39:11.653Z,55.87
2022-11-27T03:42:22.933Z,55.91
2022-11-27T03:45:31.168Z,55.88
2022-11-27T03:48:59.615Z,55.88
2022-11-27T03:52:20.049Z,55.95
2022-11-27T03:55:28.018Z,55.91
2022-11-27T03:58:41.139Z,55.93
2022-11-27T04:01:43.417Z,55.94
2022-11-27T04:04:45.554Z,55.95
2022-11-27T04:07:47.784Z,55.95
2022-11-27T04:10:50.061Z,55.93
2022-11-27T04:13:52.296Z,55.94
2022-11-27T04:16:54.354Z,55.97
2022-11-27T04:19:56.474Z,55.94
2022-11-27T04:22:58.554Z,55.94
2022-11-27T04:26:00.602Z,55.95
2022-11-27T04:29:02.666Z,55.97
2022-11-27T04:32:05.335Z,56.03
2022-11-27T04:35:07.803Z,56.00
2022-11-27T04:38:09.870Z,56.00
2022-11-27T04:41:11.916Z,56.00
2022-11-27T04:44:14.196Z,56.03
2022-11-27T04:47:16.279Z,56.00
2022-11-27T04:50:18.517Z,56.03
2022-11-27T04:53:20.737Z,56.05
2022-11-27T04:56:22.849Z,56.08
2022-11-27T04:59:24.933Z,56.03
2022-11-27T05:02:27.057Z,56.02
2022-11-27T05:05:29.085Z,56.05
2022-11-27T05:08:31.912Z,56.09
2022-11-27T05:11:34.431Z,56.10
2022-11-27T05:14:36.467Z,56.09
2022-11-27T05:17:38.547Z,56.05
2022-11-27T05:20:40.598Z,56.13
2022-11-27T05:23:42.655Z,56.10
2022-11-27T05:26:44.886Z,56.04
2022-11-27T05:29:47.126Z,56.07
2022-11-27T05:32:49.169Z,56.13
2022-11-27T05:35:51.382Z,56.15
2022-11-27T05:38:53.585Z,56.14
2022-11-27T05:41:55.621Z,56.14
2022-11-27T05:44:58.591Z,56.17
2022-11-27T05:48:00.838Z,56.15
2022-11-27T05:51:03.986Z,56.15
2022-11-27T05:54:06.132Z,56.17
2022-11-27T05:57:08.183Z,56.16
2022-11-27T06:00:10.922Z,56.18
2022-11-27T06:03:13.097Z,56.19
2022-11-27T06:06:17.861Z,55.98
2022-11-27T06:09:20.001Z,55.39
2022-11-27T06:12:22.022Z,55.13
2022-11-27T06:15:24.084Z,55.04
2022-11-27T06:18:26.111Z,54.87
2022-11-27T06:21:28.435Z,54.67
2022-11-27T06:24:30.430Z,54.36
2022-11-27T06:27:36.171Z,54.30
2022-11-27T06:30:38.625Z,54.26
2022-11-27T06:33:41.036Z,53.95
2022-11-27T06:36:43.143Z,53.76
2022-11-27T06:39:45.147Z,53.71
2022-11-27T06:42:47.765Z,53.83
2022-11-27T06:45:57.917Z,53.85
2022-11-27T06:49:00.950Z,53.56
2022-11-27T06:52:03.081Z,53.27
2022-11-27T06:55:05.336Z,53.24
2022-11-27T06:58:07.465Z,53.25
2022-11-27T07:01:15.575Z,53.27
2022-11-27T07:04:17.665Z,53.30
2022-11-27T07:07:19.905Z,53.13
2022-11-27T07:10:22.358Z,52.88
2022-11-27T07:13:24.414Z,52.82
2022-11-27T07:16:27.667Z,52.91
2022-11-27T07:19:29.903Z,52.99
2022-11-27T07:22:32.999Z,53.07
2022-11-27T07:25:37.015Z,52.85
2022-11-27T07:28:39.437Z,52.56
2022-11-27T07:31:41.501Z,52.45
2022-11-27T07:34:43.543Z,52.49
2022-11-27T07:37:45.556Z,52.59
2022-11-27T07:40:47.568Z,52.69
2022-11-27T07:43:49.651Z,52.53
2022-11-27T07:46:51.679Z,52.25
2022-11-27T07:49:58.414Z,52.14
2022-11-27T07:53:00.500Z,52.13
2022-11-27T07:56:02.506Z,52.27
2022-11-27T07:59:04.641Z,52.33
2022-11-27T08:02:07.184Z,52.33
2022-11-27T08:05:12.674Z,51.94
2022-11-27T08:08:15.167Z,51.74
2022-11-27T08:11:23.939Z,51.91
2022-11-27T08:14:26.309Z,51.95
2022-11-27T08:17:28.371Z,52.02
2022-11-27T08:20:30.763Z,51.77
2022-11-27T08:23:32.854Z,51.74
2022-11-27T08:26:35.338Z,51.47
2022-11-27T08:29:38.142Z,51.53
2022-11-27T08:32:41.163Z,51.34
2022-11-27T08:35:48.884Z,51.18
2022-11-27T08:38:51.044Z,50.91
2022-11-27T08:41:54.031Z,50.76
2022-11-27T08:44:56.253Z,50.46
2022-11-27T08:47:59.062Z,50.19
2022-11-27T08:51:06.783Z,50.21
2022-11-27T08:54:08.891Z,49.94
2022-11-27T08:57:10.917Z,49.68
2022-11-27T09:00:16.385Z,49.62
2022-11-27T09:03:18.412Z,49.44
2022-11-27T09:06:29.447Z,49.34
2022-11-27T09:09:31.719Z,49.22
2022-11-27T09:12:33.921Z,49.08
2022-11-27T09:15:35.918Z,49.15
2022-11-27T09:18:38.350Z,48.82
2022-11-27T09:21:40.366Z,48.86
2022-11-27T09:24:42.750Z,48.70
2022-11-27T09:27:45.103Z,48.23
2022-11-27T09:30:47.238Z,48.34
2022-11-27T09:33:49.977Z,48.71
2022-11-27T09:36:52.135Z,48.57
2022-11-27T09:39:55.107Z,48.51
2022-11-27T09:43:09.612Z,48.79
2022-11-27T09:46:17.499Z,48.78
2022-11-27T09:49:29.022Z,48.66
2022-11-27T09:52:52.145Z,49.01
2022-11-27T09:55:57.355Z,49.21
2022-11-27T09:59:00.616Z,49.40
2022-11-27T10:02:03.020Z,49.55
2022-11-27T10:05:19.789Z,49.61
2022-11-27T10:08:27.863Z,49.64
2022-11-27T10:12:01.744Z,49.34
2022-11-27T10:15:27.813Z,49.53
2022-11-27T10:18:47.759Z,49.62
2022-11-27T10:22:21.140Z,49.84
2022-11-27T10:25:48.004Z,50.08
2022-11-27T10:29:12.089Z,50.33
2022-11-27T10:32:54.063Z,50.28
2022-11-27T10:35:49.000Z,50.30
2022-11-27T10:38:51.606Z,50.43
2022-11-27T10:42:04.079Z,50.59
2022-11-27T10:45:20.018Z,50.79
2022-11-27T10:48:22.644Z,50.82
2022-11-27T10:51:33.981Z,50.84
2022-11-27T10:54:39.209Z,50.92
2022-11-27T10:58:09.294Z,50.97
2022-11-27T11:01:20.059Z,51.08
2022-11-27T11:04:43.520Z,51.17
2022-11-27T11:08:01.164Z,51.24
2022-11-27T11:11:05.842Z,51.25
2022-11-27T11:14:19.563Z,51.41
2022-11-27T11:17:47.927Z,51.45
2022-11-27T11:21:02.094Z,51.63
2022-11-27T11:24:20.386Z,51.72
2022-11-27T11:27:31.007Z,51.65
2022-11-27T11:30:34.900Z,51.64
2022-11-27T11:33:47.300Z,51.78
2022-11-27T11:37:07.578Z,51.86
2022-11-27T11:40:23.428Z,51.76
2022-11-27T11:43:33.067Z,51.69
2022-11-27T11:46:36.753Z,51.79
2022-11-27T11:49:38.794Z,51.95
2022-11-27T11:52:57.441Z,52.20
2022-11-27T11:56:20.592Z,52.56
2022-11-27T11:59:52.603Z,52.54
2022-11-27T12:03:23.836Z,52.53
2022-11-27T12:06:28.592Z,52.64
2022-11-27T12:09:43.682Z,52.53
2022-11-27T12:12:54.696Z,52.71
2022-11-27T12:16:08.994Z,52.85
2022-11-27T12:19:20.112Z,52.91
2022-11-27T12:22:37.234Z,53.01
2022-11-27T12:25:48.617Z,52.83
2022-11-27T12:29:23.511Z,52.83
2022-11-27T12:32:53.630Z,52.85
2022-11-27T12:36:15.910Z,52.91
2022-11-27T12:39:33.036Z,52.86
2022-11-27T12:43:05.713Z,52.84
2022-11-27T12:46:20.032Z,52.88
2022-11-27T12:49:47.195Z,53.21
2022-11-27T12:53:14.898Z,53.53
2022-11-27T12:56:47.992Z,53.88
2022-11-27T13:00:01.808Z,54.13
2022-11-27T13:03:25.071Z,54.21
2022-11-27T13:06:31.406Z,54.23
2022-11-27T13:09:54.575Z,54.32
2022-11-27T13:13:05.948Z,54.20
2022-11-27T13:16:18.616Z,54.20
2022-11-27T13:19:42.240Z,54.19
2022-11-27T13:22:45.492Z,54.26
2022-11-27T13:25:51.738Z,54.26
2022-11-27T13:28:58.062Z,54.25
2022-11-27T13:32:02.783Z,54.24
2022-11-27T13:35:18.540Z,54.23
2022-11-27T13:38:25.974Z,54.16
2022-11-27T13:41:41.161Z,54.16
2022-11-27T13:44:51.991Z,54.18
2022-11-27T13:47:56.049Z,54.15
2022-11-27T13:50:59.226Z,54.13
2022-11-27T13:54:17.018Z,54.21
2022-11-27T13:57:21.098Z,54.12
2022-11-27T14:00:44.337Z,54.19
2022-11-27T14:03:47.278Z,54.22
2022-11-27T14:06:58.290Z,54.01
2022-11-27T14:10:10.107Z,54.01
2022-11-27T14:13:13.354Z,53.97
2022-11-27T14:16:35.042Z,53.94
2022-11-27T14:19:44.192Z,53.98
2022-11-27T14:23:11.714Z,54.03
2022-11-27T14:26:15.589Z,54.01
2022-11-27T14:29:20.948Z,53.95
2022-11-27T14:32:23.055Z,53.46
2022-11-27T14:35:27.669Z,53.49
2022-11-27T14:38:31.060Z,53.61
2022-11-27T14:41:33.106Z,53.50
2022-11-27T14:44:35.294Z,53.62
2022-11-27T14:47:46.816Z,53.75
2022-11-27T14:50:49.798Z,53.75
2022-11-27T14:53:58.208Z,53.84
2022-11-27T14:57:00.475Z,53.82
2022-11-27T15:00:13.866Z,53.89
2022-11-27T15:03:18.680Z,53.89
2022-11-27T15:06:21.009Z,53.91
2022-11-27T15:09:32.585Z,53.88
2022-11-27T15:12:38.908Z,53.88
2022-11-27T15:15:44.147Z,53.85
2022-11-27T15:18:54.555Z,53.91
2022-11-27T15:21:57.670Z,53.60
2022-11-27T15:25:05.786Z,53.43
2022-11-27T15:28:38.113Z,53.36
2022-11-27T15:31:50.346Z,53.23
2022-11-27T15:34:53.601Z,53.19
2022-11-27T15:37:57.667Z,53.09
2022-11-27T15:41:01.559Z,53.11
2022-11-27T15:44:03.561Z,53.08
2022-11-27T15:47:06.748Z,53.10
2022-11-27T15:50:15.435Z,53.08
2022-11-27T15:53:17.714Z,53.13
2022-11-27T15:56:19.765Z,53.08
2022-11-27T15:59:21.945Z,53.05
2022-11-27T16:02:28.214Z,53.09
2022-11-27T16:05:30.446Z,53.11
2022-11-27T16:08:33.151Z,53.07
2022-11-27T16:11:35.205Z,53.06
2022-11-27T16:14:37.240Z,53.03
2022-11-27T16:17:39.725Z,53.04
2022-11-27T16:20:41.766Z,53.02
2022-11-27T16:23:44.312Z,53.05
2022-11-27T16:26:46.310Z,53.01
2022-11-27T16:29:48.316Z,53.04
2022-11-27T16:32:50.362Z,53.04
2022-11-27T16:35:52.555Z,53.02
2022-11-27T16:38:55.328Z,53.06
2022-11-27T16:41:57.344Z,53.07
2022-11-27T16:44:59.351Z,53.09
2022-11-27T16:48:01.401Z,53.07
2022-11-27T16:51:06.432Z,53.04
2022-11-27T16:54:11.630Z,53.04
2022-11-27T16:57:13.687Z,53.05
2022-11-27T17:00:16.208Z,52.94
2022-11-27T17:03:18.238Z,52.98
2022-11-27T17:06:22.633Z,52.93
2022-11-27T17:09:25.924Z,52.93
2022-11-27T17:12:27.931Z,53.04
2022-11-27T17:15:29.983Z,53.16
2022-11-27T17:18:32.473Z,53.20
2022-11-27T17:21:35.544Z,53.14
2022-11-27T17:24:37.577Z,53.14
2022-11-27T17:27:46.792Z,53.14
2022-11-27T17:30:48.810Z,53.07
2022-11-27T17:33:52.560Z,53.10
2022-11-27T17:36:57.380Z,53.15
2022-11-27T17:39:59.460Z,53.14
2022-11-27T17:43:01.663Z,53.18
2022-11-27T17:46:14.189Z,53.20
2022-11-27T17:49:16.857Z,53.21
2022-11-27T17:52:18.988Z,53.14
2022-11-27T17:55:21.021Z,53.21
2022-11-27T17:58:23.256Z,53.20
2022-11-27T18:01:28.414Z,53.21
2022-11-27T18:04:31.023Z,53.16
2022-11-27T18:07:33.270Z,53.19
2022-11-27T18:10:35.377Z,53.19
2022-11-27T18:13:37.577Z,53.14
2022-11-27T18:16:39.716Z,53.24
2022-11-27T18:19:42.027Z,53.21
2022-11-27T18:22:44.550Z,53.19
2022-11-27T18:25:49.093Z,53.20
2022-11-27T18:28:56.039Z,53.23
2022-11-27T18:31:58.284Z,53.23
2022-11-27T18:35:00.348Z,53.25
2022-11-27T18:38:03.719Z,53.26
2022-11-27T18:41:14.679Z,53.20
2022-11-27T18:44:16.782Z,53.21
2022-11-27T18:47:18.865Z,53.23
2022-11-27T18:50:24.386Z,53.24
2022-11-27T18:53:29.007Z,53.26
2022-11-27T18:56:31.998Z,53.29
2022-11-27T18:59:34.656Z,53.29
2022-11-27T19:02:36.737Z,53.24
2022-11-27T19:05:38.939Z,53.25
2022-11-27T19:08:41.610Z,53.26
2022-11-27T19:11:43.770Z,53.28
2022-11-27T19:14:45.814Z,53.33
2022-11-27T19:17:47.800Z,53.30
2022-11-27T19:20:50.338Z,53.30
2022-11-27T19:23:53.101Z,53.32
2022-11-27T19:26:55.297Z,53.33
2022-11-27T19:29:57.300Z,53.29
2022-11-27T19:32:59.339Z,53.30
2022-11-27T19:36:09.439Z,53.28
2022-11-27T19:39:14.294Z,53.34
2022-11-27T19:42:16.489Z,53.36
2022-11-27T19:45:24.280Z,53.43
2022-11-27T19:48:26.416Z,53.43
2022-11-27T19:51:32.400Z,53.51
2022-11-27T19:54:34.460Z,53.43
2022-11-27T19:57:37.495Z,53.41
2022-11-27T20:00:39.604Z,53.46
2022-11-27T20:03:42.216Z,53.45
2022-11-27T20:06:44.303Z,53.42
2022-11-27T20:09:46.359Z,53.49
2022-11-27T20:12:48.595Z,53.46
2022-11-27T20:15:51.565Z,53.49
2022-11-27T20:18:53.807Z,53.52
2022-11-27T20:21:56.130Z,53.55
2022-11-27T20:25:18.289Z,53.38
2022-11-27T20:28:21.744Z,53.56
2022-11-27T20:31:29.718Z,53.67
2022-11-27T20:34:31.875Z,53.79
2022-11-27T20:37:35.032Z,53.87
2022-11-27T20:40:39.171Z,53.85
2022-11-27T20:43:42.976Z,53.87
2022-11-27T20:46:45.209Z,53.88
2022-11-27T20:49:47.227Z,53.90
2022-11-27T20:52:49.441Z,53.95
2022-11-27T20:55:51.540Z,53.95
2022-11-27T20:58:54.652Z,53.98
2022-11-27T21:01:56.776Z,53.93
2022-11-27T21:04:58.921Z,53.91
2022-11-27T21:08:01.008Z,53.91
2022-11-27T21:11:15.274Z,53.94
2022-11-27T21:14:17.864Z,53.89
2022-11-27T21:17:20.020Z,53.91
2022-11-27T21:20:22.077Z,53.91
2022-11-27T21:23:24.057Z,53.82
2022-11-27T21:26:27.006Z,53.86
2022-11-27T21:29:29.235Z,53.91
2022-11-27T21:32:31.346Z,53.94
2022-11-27T21:35:36.714Z,53.96
2022-11-27T21:38:41.368Z,54.01
2022-11-27T21:41:43.355Z,54.08
2022-11-27T21:44:45.446Z,54.13
2022-11-27T21:47:47.638Z,54.17
2022-11-27T21:50:49.836Z,54.17
2022-11-27T21:53:54.194Z,54.20
2022-11-27T21:56:56.942Z,54.26
2022-11-27T21:59:58.949Z,54.30
2022-11-27T22:03:01.071Z,54.32
2022-11-27T22:06:07.439Z,54.34
2022-11-27T22:09:15.089Z,54.36
2022-11-27T22:12:17.888Z,54.39
2022-11-27T22:15:19.894Z,54.40
2022-11-27T22:18:21.919Z,54.23
2022-11-27T22:21:24.552Z,54.27
2022-11-27T22:24:26.541Z,54.30
2022-11-27T22:27:28.630Z,54.42
2022-11-27T22:30:30.711Z,54.42
2022-11-27T22:33:35.395Z,54.49
2022-11-27T22:36:37.431Z,54.54
2022-11-27T22:39:39.941Z,54.63
2022-11-27T22:42:41.960Z,54.66
2022-11-27T22:45:47.807Z,54.69
2022-11-27T22:48:54.689Z,54.71
2022-11-27T22:51:56.725Z,54.73
2022-11-27T22:54:58.856Z,54.77
2022-11-27T22:58:00.845Z,54.87
2022-11-27T23:01:06.816Z,54.88
2022-11-27T23:04:08.850Z,54.91
2022-11-27T23:07:11.197Z,54.94
2022-11-27T23:10:13.214Z,54.91
2022-11-27T23:13:15.990Z,54.90
2022-11-27T23:16:19.353Z,54.97
2022-11-27T23:19:21.532Z,54.95
2022-11-27T23:22:23.523Z,55.01
2022-11-27T23:25:25.711Z,54.97
2022-11-27T23:28:27.696Z,55.04
2022-11-27T23:31:35.726Z,55.03
2022-11-27T23:34:37.890Z,55.05
2022-11-27T23:37:39.968Z,55.04
2022-11-27T23:40:41.961Z,55.06
2022-11-27T23:43:44.268Z,55.02
2022-11-27T23:46:46.367Z,55.07
2022-11-27T23:49:48.337Z,55.02
2022-11-27T23:52:50.331Z,55.09
2022-11-27T23:55:52.343Z,55.17
2022-11-27T23:58:55.601Z,55.06
